createdAt,value
2023-02-13T00:01:19.714Z,99.90
2023-02-13T00:03:47.693Z,99.90
2023-02-13T00:06:15.541Z,99.90
2023-02-13T00:08:43.516Z,99.90
2023-02-13T00:11:12.836Z,99.90
2023-02-13T00:13:40.706Z,99.90
2023-02-13T00:16:09.035Z,99.90
2023-02-13T00:18:39.316Z,99.90
2023-02-13T00:21:09.904Z,99.90
2023-02-13T00:23:39.351Z,99.90
2023-02-13T00:26:10.657Z,99.90
2023-02-13T00:28:40.671Z,99.90
2023-02-13T00:31:10.856Z,99.90
2023-02-13T00:33:39.528Z,99.90
2023-02-13T00:36:09.056Z,99.90
2023-02-13T00:38:38.019Z,99.90
2023-02-13T00:41:06.714Z,99.90
2023-02-13T00:43:34.995Z,99.90
2023-02-13T00:46:04.792Z,99.90
2023-02-13T00:48:34.620Z,99.90
2023-02-13T00:51:03.122Z,99.90
2023-02-13T00:53:31.560Z,99.90
2023-02-13T00:55:59.515Z,99.90
2023-02-13T00:58:27.976Z,99.90
2023-02-13T01:00:56.446Z,99.90
2023-02-13T01:03:26.580Z,99.90
2023-02-13T01:05:54.646Z,99.90
2023-02-13T01:08:22.983Z,99.90
2023-02-13T01:10:51.420Z,99.90
2023-02-13T01:13:19.676Z,99.90
2023-02-13T01:15:48.108Z,99.90
2023-02-13T01:18:17.480Z,99.90
2023-02-13T01:20:56.856Z,99.90
2023-02-13T01:23:25.809Z,99.90
2023-02-13T01:25:53.813Z,99.90
2023-02-13T01:28:21.807Z,99.90
2023-02-13T01:30:54.925Z,99.90
2023-02-13T01:33:24.119Z,99.90
2023-02-13T01:35:55.251Z,99.90
2023-02-13T01:38:23.419Z,99.90
2023-02-13T01:40:52.960Z,99.90
2023-02-13T01:43:23.343Z,99.90
2023-02-13T01:45:56.252Z,99.90
2023-02-13T01:48:26.935Z,99.90
2023-02-13T01:50:59.508Z,99.90
2023-02-13T01:53:32.371Z,99.90
2023-02-13T01:56:04.024Z,99.90
2023-02-13T01:58:38.876Z,99.90
2023-02-13T02:01:09.682Z,99.90
2023-02-13T02:03:40.591Z,99.90
2023-02-13T02:06:16.893Z,99.90
2023-02-13T02:08:45.237Z,99.90
2023-02-13T02:11:19.165Z,99.90
2023-02-13T02:13:48.125Z,99.90
2023-02-13T02:16:16.107Z,99.90
2023-02-13T02:18:47.009Z,99.90
2023-02-13T02:21:45.153Z,99.90
2023-02-13T02:25:10.680Z,99.90
2023-02-13T02:27:52.901Z,99.90
2023-02-13T02:30:51.201Z,99.90
2023-02-13T02:33:30.887Z,99.90
2023-02-13T02:36:12.012Z,99.90
2023-02-13T02:38:58.039Z,99.90
2023-02-13T02:41:43.248Z,99.90
2023-02-13T02:44:27.328Z,99.90
2023-02-13T02:47:20.957Z,99.90
2023-02-13T02:50:02.377Z,99.90
2023-02-13T02:52:41.830Z,99.90
2023-02-13T02:55:17.412Z,99.90
2023-02-13T02:58:10.144Z,99.90
2023-02-13T03:01:00.489Z,99.90
2023-02-13T03:03:48.326Z,99.90
2023-02-13T03:06:22.365Z,99.90
2023-02-13T03:09:12.825Z,99.90
2023-02-13T03:12:00.408Z,99.90
2023-02-13T03:14:29.643Z,99.90
2023-02-13T03:17:17.618Z,99.90
2023-02-13T03:20:17.230Z,99.90
2023-02-13T03:23:02.944Z,99.90
2023-02-13T03:25:39.109Z,99.90
2023-02-13T03:28:36.319Z,99.90
2023-02-13T03:31:14.552Z,99.90
2023-02-13T03:33:55.965Z,99.90
2023-02-13T03:36:53.101Z,99.90
2023-02-13T03:39:25.431Z,99.90
2023-02-13T03:41:59.213Z,99.90
2023-02-13T03:44:32.123Z,99.90
2023-02-13T03:47:05.410Z,99.90
2023-02-13T03:49:56.631Z,99.90
2023-02-13T03:52:32.994Z,99.90
2023-02-13T03:55:24.969Z,99.90
2023-02-13T03:58:13.180Z,99.90
2023-02-13T04:00:45.298Z,99.90
2023-02-13T04:03:18.896Z,99.90
2023-02-13T04:05:50.951Z,99.90
2023-02-13T04:08:19.118Z,99.90
2023-02-13T04:10:54.509Z,99.90
2023-02-13T04:13:28.891Z,99.90
2023-02-13T04:16:03.553Z,99.90
2023-02-13T04:18:34.166Z,99.90
2023-02-13T04:21:03.878Z,99.90
2023-02-13T04:23:31.801Z,99.90
2023-02-13T04:26:03.445Z,99.90
2023-02-13T04:28:31.575Z,99.90
2023-02-13T04:31:00.112Z,99.90
2023-02-13T04:33:28.374Z,99.90
2023-02-13T04:35:56.853Z,99.90
2023-02-13T04:38:25.011Z,99.90
2023-02-13T04:40:52.929Z,99.90
2023-02-13T04:43:22.863Z,99.90
2023-02-13T04:45:51.374Z,99.90
2023-02-13T04:48:19.498Z,99.90
2023-02-13T04:50:47.944Z,99.90
2023-02-13T04:53:15.850Z,99.90
2023-02-13T04:55:44.231Z,99.90
2023-02-13T04:58:12.362Z,99.90
2023-02-13T05:00:41.797Z,99.90
2023-02-13T05:03:14.590Z,99.90
2023-02-13T05:05:42.616Z,99.90
2023-02-13T05:08:10.682Z,99.90
2023-02-13T05:10:38.733Z,99.90
2023-02-13T05:13:06.814Z,99.90
2023-02-13T05:15:34.820Z,99.90
2023-02-13T05:18:04.191Z,99.90
2023-02-13T05:20:32.109Z,99.90
2023-02-13T05:23:18.301Z,99.90
2023-02-13T05:25:46.232Z,99.90
2023-02-13T05:28:28.111Z,99.90
2023-02-13T05:30:57.088Z,99.90
2023-02-13T05:33:26.765Z,99.90
2023-02-13T05:35:55.685Z,99.90
2023-02-13T05:38:23.552Z,99.90
2023-02-13T05:40:51.498Z,99.90
2023-02-13T05:43:20.788Z,99.90
2023-02-13T05:45:48.816Z,99.90
2023-02-13T05:48:16.886Z,99.90
2023-02-13T05:50:47.580Z,99.90
2023-02-13T05:53:15.483Z,99.90
2023-02-13T05:55:43.444Z,99.90
2023-02-13T05:58:11.908Z,99.90
2023-02-13T06:00:40.015Z,99.90
2023-02-13T06:03:07.919Z,99.90
2023-02-13T06:05:35.861Z,99.90
2023-02-13T06:08:05.594Z,99.90
2023-02-13T06:10:33.799Z,99.90
2023-02-13T06:13:01.735Z,99.90
2023-02-13T06:15:29.634Z,99.90
2023-02-13T06:17:57.629Z,99.90
2023-02-13T06:20:25.651Z,99.90
2023-02-13T06:22:55.544Z,99.90
2023-02-13T06:25:25.089Z,99.90
2023-02-13T06:27:54.851Z,99.90
2023-02-13T06:30:23.666Z,99.90
2023-02-13T06:32:51.778Z,99.90
2023-02-13T06:35:19.910Z,99.90
2023-02-13T06:37:48.810Z,99.90
2023-02-13T06:40:17.506Z,99.90
2023-02-13T06:42:47.148Z,99.90
2023-02-13T06:45:15.685Z,99.90
2023-02-13T06:47:44.531Z,99.90
2023-02-13T06:50:14.174Z,99.90
2023-02-13T06:52:47.430Z,99.90
2023-02-13T06:55:15.945Z,99.90
2023-02-13T06:57:44.062Z,99.90
2023-02-13T07:00:17.186Z,99.90
2023-02-13T07:02:47.052Z,99.90
2023-02-13T07:05:16.053Z,99.90
2023-02-13T07:07:44.412Z,99.90
2023-02-13T07:10:14.525Z,99.90
2023-02-13T07:12:43.661Z,99.90
2023-02-13T07:15:13.534Z,99.90
2023-02-13T07:17:41.403Z,99.90
2023-02-13T07:20:10.416Z,99.90
2023-02-13T07:22:38.379Z,99.90
2023-02-13T07:25:06.871Z,99.90
2023-02-13T07:27:34.772Z,99.90
2023-02-13T07:30:02.909Z,99.90
2023-02-13T07:32:32.104Z,99.90
2023-02-13T07:35:02.339Z,99.90
2023-02-13T07:37:31.350Z,99.90
2023-02-13T07:39:59.294Z,99.90
2023-02-13T07:42:27.260Z,99.90
2023-02-13T07:44:55.244Z,99.90
2023-02-13T07:47:25.186Z,99.90
2023-02-13T07:49:55.153Z,99.90
2023-02-13T07:52:23.244Z,99.90
2023-02-13T07:54:51.425Z,99.90
2023-02-13T07:57:19.391Z,99.90
2023-02-13T07:59:47.287Z,99.90
2023-02-13T08:02:15.729Z,99.90
2023-02-13T08:04:46.154Z,99.90
2023-02-13T08:07:16.346Z,99.90
2023-02-13T08:10:03.468Z,99.90
2023-02-13T08:12:32.162Z,99.90
2023-02-13T08:15:00.059Z,99.90
2023-02-13T08:17:28.071Z,99.90
2023-02-13T08:19:56.010Z,99.90
2023-02-13T08:22:25.521Z,99.90
2023-02-13T08:24:53.619Z,99.90
2023-02-13T08:27:21.807Z,99.90
2023-02-13T08:29:50.970Z,99.90
2023-02-13T08:32:19.121Z,99.90
2023-02-13T08:34:48.418Z,99.90
2023-02-13T08:37:16.718Z,99.90
2023-02-13T08:39:46.198Z,99.90
2023-02-13T08:42:16.053Z,99.90
2023-02-13T08:44:44.610Z,99.90
2023-02-13T08:47:12.710Z,99.90
2023-02-13T08:49:40.682Z,99.90
2023-02-13T08:52:08.816Z,99.90
2023-02-13T08:54:37.205Z,99.90
2023-02-13T08:57:06.471Z,99.90
2023-02-13T08:59:34.328Z,99.90
2023-02-13T09:02:02.635Z,99.90
2023-02-13T09:04:30.923Z,99.90
2023-02-13T09:06:58.819Z,99.90
2023-02-13T09:09:26.743Z,99.90
2023-02-13T09:11:57.785Z,99.90
2023-02-13T09:14:27.043Z,99.90
2023-02-13T09:16:55.223Z,99.90
2023-02-13T09:19:23.538Z,99.90
2023-02-13T09:21:51.685Z,99.90
2023-02-13T09:24:19.563Z,99.90
2023-02-13T09:26:47.649Z,99.90
2023-02-13T09:29:15.651Z,99.90
2023-02-13T09:31:45.109Z,99.90
2023-02-13T09:34:13.170Z,99.90
2023-02-13T09:36:41.122Z,99.90
2023-02-13T09:39:10.424Z,99.90
2023-02-13T09:41:40.774Z,99.90
2023-02-13T09:44:33.918Z,99.90
2023-02-13T09:47:05.566Z,99.90
2023-02-13T09:49:38.011Z,99.90
2023-02-13T09:52:06.152Z,99.60
2023-02-13T09:54:34.133Z,98.30
2023-02-13T09:57:08.701Z,96.60
2023-02-13T09:59:51.109Z,95.70
2023-02-13T10:02:35.306Z,94.30
2023-02-13T10:05:16.011Z,93.10
2023-02-13T10:07:52.717Z,91.50
2023-02-13T10:10:29.873Z,90.00
2023-02-13T10:13:07.667Z,88.40
2023-02-13T10:15:42.956Z,83.90
2023-02-13T10:18:18.553Z,80.90
2023-02-13T10:20:50.585Z,76.50
2023-02-13T10:23:24.130Z,73.80
2023-02-13T10:25:58.741Z,69.80
2023-02-13T10:28:37.534Z,68.10
2023-02-13T10:31:09.186Z,67.40
2023-02-13T10:33:47.633Z,67.70
2023-02-13T10:36:19.687Z,66.20
2023-02-13T10:38:57.158Z,62.40
2023-02-13T10:41:31.759Z,59.40
2023-02-13T10:44:13.548Z,57.70
2023-02-13T10:46:48.900Z,56.30
2023-02-13T10:49:38.338Z,54.30
2023-02-13T10:52:14.575Z,51.50
2023-02-13T10:55:06.440Z,50.10
2023-02-13T10:57:51.793Z,49.80
2023-02-13T11:00:23.555Z,48.80
2023-02-13T11:02:51.519Z,48.00
2023-02-13T11:05:24.160Z,48.50
2023-02-13T11:07:52.409Z,49.70
2023-02-13T11:10:22.657Z,48.90
2023-02-13T11:12:51.697Z,47.90
2023-02-13T11:15:26.720Z,47.50
2023-02-13T11:17:56.813Z,46.40
2023-02-13T11:20:32.914Z,46.20
2023-02-13T11:23:19.954Z,45.90
2023-02-13T11:26:00.405Z,44.30
2023-02-13T11:28:31.113Z,43.20
2023-02-13T11:31:16.326Z,43.00
2023-02-13T11:33:44.269Z,42.20
2023-02-13T11:36:16.688Z,41.60
2023-02-13T11:38:45.759Z,41.20
2023-02-13T11:41:17.702Z,40.80
2023-02-13T11:43:49.411Z,40.20
2023-02-13T11:46:21.276Z,39.80
2023-02-13T11:48:59.029Z,39.80
2023-02-13T11:51:40.541Z,40.20
2023-02-13T11:54:20.641Z,40.40
2023-02-13T11:57:05.090Z,40.20
2023-02-13T11:59:40.954Z,40.10
2023-02-13T12:02:18.765Z,40.40
2023-02-13T12:04:47.819Z,40.90
2023-02-13T12:07:20.949Z,40.40
2023-02-13T12:09:52.225Z,40.50
2023-02-13T12:12:26.680Z,40.70
2023-02-13T12:14:54.707Z,41.90
2023-02-13T12:17:31.644Z,42.80
2023-02-13T12:20:00.440Z,43.80
2023-02-13T12:22:35.275Z,44.90
2023-02-13T12:25:24.693Z,45.70
2023-02-13T12:28:07.643Z,47.10
2023-02-13T12:31:02.941Z,48.40
2023-02-13T12:34:06.282Z,49.80
2023-02-13T12:36:45.516Z,51.00
2023-02-13T12:39:28.653Z,51.90
2023-02-13T12:42:09.585Z,52.60
2023-02-13T12:44:55.039Z,53.30
2023-02-13T12:47:25.647Z,54.30
2023-02-13T12:50:24.813Z,55.20
2023-02-13T12:53:05.031Z,56.30
2023-02-13T12:55:56.134Z,57.00
2023-02-13T12:59:01.355Z,57.60
2023-02-13T13:01:53.802Z,58.00
2023-02-13T13:04:31.615Z,58.70
2023-02-13T13:07:17.733Z,59.20
2023-02-13T13:10:13.013Z,59.40
2023-02-13T13:12:51.768Z,59.70
2023-02-13T13:15:30.820Z,60.40
2023-02-13T13:18:13.090Z,60.80
2023-02-13T13:21:02.963Z,61.40
2023-02-13T13:23:33.749Z,61.60
2023-02-13T13:26:12.738Z,61.90
2023-02-13T13:28:44.070Z,62.10
2023-02-13T13:31:13.252Z,62.50
2023-02-13T13:33:43.949Z,62.80
2023-02-13T13:36:20.821Z,62.50
2023-02-13T13:38:59.453Z,62.50
2023-02-13T13:41:36.543Z,63.10
2023-02-13T13:44:23.979Z,63.60
2023-02-13T13:46:59.504Z,63.50
2023-02-13T13:49:43.618Z,63.90
2023-02-13T13:52:21.043Z,63.90
2023-02-13T13:54:51.646Z,63.70
2023-02-13T13:57:20.708Z,63.60
2023-02-13T14:00:27.874Z,63.10
2023-02-13T14:03:22.681Z,62.80
2023-02-13T14:06:07.141Z,62.70
2023-02-13T14:09:28.793Z,63.10
2023-02-13T14:12:02.435Z,63.50
2023-02-13T14:14:52.568Z,63.70
2023-02-13T14:17:50.860Z,64.00
2023-02-13T14:20:29.620Z,63.50
2023-02-13T14:22:58.259Z,63.30
2023-02-13T14:25:27.969Z,63.30
2023-02-13T14:28:00.919Z,63.40
2023-02-13T14:30:31.754Z,63.40
2023-02-13T14:33:02.290Z,63.40
2023-02-13T14:35:33.517Z,62.70
2023-02-13T14:38:03.794Z,62.80
2023-02-13T14:40:45.094Z,62.50
2023-02-13T14:43:30.655Z,62.70
2023-02-13T14:46:03.158Z,62.30
2023-02-13T14:48:38.756Z,61.70
2023-02-13T14:51:07.520Z,62.20
2023-02-13T14:53:46.556Z,62.10
2023-02-13T14:56:18.799Z,62.00
2023-02-13T14:58:53.860Z,62.30
2023-02-13T15:01:34.647Z,62.00
2023-02-13T15:04:11.431Z,61.90
2023-02-13T15:06:42.483Z,62.30
2023-02-13T15:09:23.033Z,62.90
2023-02-13T15:11:51.310Z,63.00
2023-02-13T15:14:23.901Z,62.80
2023-02-13T15:16:55.922Z,62.50
2023-02-13T15:19:25.275Z,62.10
2023-02-13T15:21:59.059Z,62.80
2023-02-13T15:24:27.778Z,63.20
2023-02-13T15:27:01.767Z,63.40
2023-02-13T15:29:44.285Z,63.70
2023-02-13T15:32:21.034Z,63.80
2023-02-13T15:34:49.763Z,64.10
2023-02-13T15:37:22.787Z,64.40
2023-02-13T15:39:50.825Z,64.60
2023-02-13T15:42:18.699Z,65.00
2023-02-13T15:44:52.298Z,65.50
2023-02-13T15:47:28.384Z,66.20
2023-02-13T15:49:56.761Z,66.40
2023-02-13T15:52:31.340Z,66.70
2023-02-13T15:55:00.555Z,67.30
2023-02-13T15:57:29.683Z,67.80
2023-02-13T16:00:01.094Z,68.60
2023-02-13T16:02:43.015Z,69.10
2023-02-13T16:05:13.692Z,70.00
2023-02-13T16:07:51.980Z,70.60
2023-02-13T16:10:28.643Z,71.00
2023-02-13T16:12:58.590Z,71.70
2023-02-13T16:15:30.284Z,72.40
2023-02-13T16:17:58.912Z,73.00
2023-02-13T16:20:28.833Z,73.70
2023-02-13T16:23:00.026Z,74.50
2023-02-13T16:25:31.437Z,75.30
2023-02-13T16:28:01.764Z,76.20
2023-02-13T16:30:34.728Z,77.00
2023-02-13T16:33:24.711Z,77.80
2023-02-13T16:35:55.057Z,78.50
2023-02-13T16:38:29.267Z,79.30
2023-02-13T16:40:58.771Z,80.20
2023-02-13T16:43:41.867Z,81.00
2023-02-13T16:46:33.284Z,81.90
2023-02-13T16:49:19.875Z,82.70
2023-02-13T16:51:57.686Z,83.70
2023-02-13T16:54:32.959Z,84.80
2023-02-13T16:57:03.710Z,85.80
2023-02-13T16:59:49.448Z,86.90
2023-02-13T17:02:21.637Z,88.00
2023-02-13T17:04:52.868Z,89.30
2023-02-13T17:07:31.062Z,90.20
2023-02-13T17:10:01.322Z,90.70
2023-02-13T17:12:30.681Z,91.20
2023-02-13T17:15:00.011Z,91.70
2023-02-13T17:17:31.184Z,92.20
2023-02-13T17:19:59.556Z,92.70
2023-02-13T17:22:33.452Z,93.20
2023-02-13T17:25:03.661Z,93.60
2023-02-13T17:27:32.027Z,94.00
2023-02-13T17:29:59.953Z,94.50
2023-02-13T17:32:30.050Z,94.90
2023-02-13T17:34:57.949Z,95.20
2023-02-13T17:37:27.948Z,95.60
2023-02-13T17:39:56.780Z,95.90
2023-02-13T17:42:26.692Z,96.30
2023-02-13T17:44:55.735Z,96.60
2023-02-13T17:47:24.447Z,96.90
2023-02-13T17:50:02.022Z,97.20
2023-02-13T17:52:33.086Z,97.50
2023-02-13T17:55:00.966Z,97.80
2023-02-13T17:57:28.811Z,98.40
2023-02-13T17:59:56.964Z,98.40
2023-02-13T18:02:27.164Z,98.70
2023-02-13T18:04:56.351Z,99.00
2023-02-13T18:07:24.240Z,99.30
2023-02-13T18:09:52.303Z,99.60
2023-02-13T18:12:22.619Z,99.90
2023-02-13T18:14:50.983Z,99.90
2023-02-13T18:17:20.172Z,99.90
2023-02-13T18:19:50.414Z,99.90
2023-02-13T18:22:19.663Z,99.90
2023-02-13T18:24:47.686Z,99.90
2023-02-13T18:27:15.575Z,99.90
2023-02-13T18:29:43.653Z,99.90
2023-02-13T18:32:12.633Z,99.90
2023-02-13T18:34:41.278Z,99.90
2023-02-13T18:37:10.297Z,99.90
2023-02-13T18:39:39.623Z,99.90
2023-02-13T18:42:10.227Z,99.90
2023-02-13T18:44:38.074Z,99.90
2023-02-13T18:47:05.992Z,99.90
2023-02-13T18:49:33.880Z,99.90
2023-02-13T18:52:02.258Z,99.90
2023-02-13T18:54:30.472Z,99.90
2023-02-13T18:56:59.742Z,99.90
2023-02-13T18:59:27.798Z,99.90
2023-02-13T19:01:55.744Z,99.90
2023-02-13T19:04:23.950Z,99.90
2023-02-13T19:06:52.157Z,99.90
2023-02-13T19:09:20.045Z,99.90
2023-02-13T19:11:48.962Z,99.90
2023-02-13T19:14:18.290Z,99.90
2023-02-13T19:16:46.311Z,99.90
2023-02-13T19:19:14.254Z,99.90
2023-02-13T19:21:43.803Z,99.90
2023-02-13T19:24:15.378Z,99.90
2023-02-13T19:26:44.569Z,99.90
2023-02-13T19:29:12.581Z,99.90
2023-02-13T19:31:42.161Z,99.90
2023-02-13T19:34:10.131Z,99.90
2023-02-13T19:36:38.093Z,99.90
2023-02-13T19:39:09.670Z,99.90
2023-02-13T19:41:39.717Z,99.90
2023-02-13T19:44:08.612Z,99.90
2023-02-13T19:46:37.083Z,99.90
2023-02-13T19:49:07.112Z,99.90
2023-02-13T19:51:36.063Z,99.90
2023-02-13T19:54:06.629Z,99.90
2023-02-13T19:56:36.692Z,99.90
2023-02-13T19:59:05.056Z,99.90
2023-02-13T20:01:33.074Z,99.90
2023-02-13T20:04:00.957Z,99.90
2023-02-13T20:06:33.458Z,99.90
2023-02-13T20:09:03.138Z,99.90
2023-02-13T20:11:31.124Z,99.90
2023-02-13T20:14:01.501Z,99.90
2023-02-13T20:16:32.937Z,99.90
2023-02-13T20:19:03.548Z,99.90
2023-02-13T20:21:34.312Z,99.90
2023-02-13T20:24:03.916Z,99.90
2023-02-13T20:26:32.204Z,99.90
2023-02-13T20:29:00.388Z,99.90
2023-02-13T20:31:30.077Z,99.90
2023-02-13T20:33:58.839Z,99.90
2023-02-13T20:36:28.780Z,99.90
2023-02-13T20:39:00.225Z,99.90
2023-02-13T20:41:30.482Z,99.90
2023-02-13T20:43:59.748Z,99.90
2023-02-13T20:46:27.725Z,99.90
2023-02-13T20:48:55.879Z,99.90
2023-02-13T20:51:23.767Z,99.90
2023-02-13T20:53:51.744Z,99.90
2023-02-13T20:56:23.392Z,99.90
2023-02-13T20:58:53.119Z,99.90
2023-02-13T21:01:22.920Z,99.90
2023-02-13T21:03:53.815Z,99.90
2023-02-13T21:06:24.847Z,99.90
2023-02-13T21:08:53.975Z,99.90
2023-02-13T21:11:23.922Z,99.90
2023-02-13T21:13:53.057Z,99.90
2023-02-13T21:16:22.927Z,99.90
2023-02-13T21:18:52.705Z,99.90
2023-02-13T21:21:21.667Z,99.90
2023-02-13T21:23:49.705Z,99.90
2023-02-13T21:26:19.275Z,99.90
2023-02-13T21:28:49.628Z,99.90
2023-02-13T21:31:19.891Z,99.90
2023-02-13T21:33:47.855Z,99.90
2023-02-13T21:36:15.932Z,99.90
2023-02-13T21:38:44.126Z,99.90
2023-02-13T21:41:13.529Z,99.90
2023-02-13T21:43:46.683Z,99.90
2023-02-13T21:46:18.362Z,99.90
2023-02-13T21:48:47.121Z,99.90
2023-02-13T21:51:17.028Z,99.90
2023-02-13T21:53:45.762Z,99.90
2023-02-13T21:56:15.680Z,99.90
2023-02-13T21:58:44.992Z,99.90
2023-02-13T22:01:25.577Z,99.90
2023-02-13T22:03:55.640Z,99.90
2023-02-13T22:06:24.507Z,99.90
2023-02-13T22:08:57.553Z,99.90
2023-02-13T22:11:26.864Z,99.90
2023-02-13T22:13:56.613Z,99.90
2023-02-13T22:16:26.384Z,99.90
2023-02-13T22:18:54.335Z,99.90
2023-02-13T22:21:23.946Z,99.90
2023-02-13T22:23:52.389Z,99.90
2023-02-13T22:26:22.662Z,99.90
2023-02-13T22:28:51.291Z,99.90
2023-02-13T22:31:22.368Z,99.90
2023-02-13T22:34:02.913Z,99.90
2023-02-13T22:36:33.147Z,99.90
2023-02-13T22:39:01.134Z,99.90
2023-02-13T22:41:29.102Z,99.90
2023-02-13T22:43:57.717Z,99.90
2023-02-13T22:46:27.802Z,99.90
2023-02-13T22:48:57.605Z,99.90
2023-02-13T22:51:27.050Z,99.90
2023-02-13T22:53:56.125Z,99.90
2023-02-13T22:56:25.121Z,99.90
2023-02-13T22:58:53.214Z,99.90
2023-02-13T23:01:24.010Z,99.90
2023-02-13T23:03:52.183Z,99.90
2023-02-13T23:06:21.761Z,99.90
2023-02-13T23:08:52.489Z,99.90
2023-02-13T23:11:40.478Z,99.90
2023-02-13T23:14:10.363Z,99.90
2023-02-13T23:16:56.736Z,99.90
2023-02-13T23:19:25.414Z,99.90
2023-02-13T23:21:54.711Z,99.90
2023-02-13T23:24:22.865Z,99.90
2023-02-13T23:26:50.814Z,99.90
2023-02-13T23:29:18.793Z,99.90
2023-02-13T23:31:46.853Z,99.90
2023-02-13T23:34:14.798Z,99.90
2023-02-13T23:36:44.226Z,99.90
2023-02-13T23:39:13.570Z,99.90
2023-02-13T23:41:42.662Z,99.90
2023-02-13T23:44:10.616Z,99.90
2023-02-13T23:46:38.573Z,99.90
2023-02-13T23:49:07.544Z,99.90
2023-02-13T23:51:35.609Z,99.90
2023-02-13T23:54:03.649Z,99.90
2023-02-13T23:56:33.254Z,99.90
2023-02-13T23:59:01.142Z,99.90
